Flight Track Log - Related Links

Times and Time Zones

All times are in EDT time to prevent confusion due to time zone crossing. See the FDX1670 flight status page for this flight to view local times or setup timezone preferences in your user account.

Time Position Orientation Groundspeed Altitude Reporting Facility
EDT Latitude Longitude Course Direction KTS MPH feet Rate Location/Type
Wed 08:17:42 PM 41.5020 -74.1690 291° West 196 226 4,000  Level FlightAware ADS-B
Wed 08:18:10 PM 41.5220 -74.1959 315° West 204 235 5,400 2,280 Climbing FlightAware ADS-B
Wed 08:18:32 PM 41.5391 -74.2217 312° West 204 235 5,900 2,710 Climbing FlightAware ADS-B
Wed 08:21:00 PM 41.7088 -74.4423 307° West  Level FlightAware Approximate
Wed 08:22:00 PM 41.7409 -74.5530 252° West  Level FlightAware Approximate
Wed 08:22:18 PM 41.6010 -74.6590 252° West 393 452 16,600  Level FlightAware ADS-B
Wed 08:22:50 PM 41.6050 -74.7398 274° West 400 460 17,100 727 Climbing FlightAware ADS-B
Wed 08:23:24 PM 41.6102 -74.8229 275° West 396 456 17,400 2,677 Climbing FlightAware ADS-B
Wed 08:23:55 PM 41.6145 -74.8938 275° West 373 429 20,000 4,230 Climbing FlightAware ADS-B
Wed 08:24:25 PM 41.6189 -74.9657 275° West 377 434 21,700 3,265 Climbing FlightAware ADS-B
Wed 08:25:03 PM 41.6242 -75.0562 275° West 391 450 23,700 3,130 Climbing FlightAware ADS-B
Wed 08:25:34 PM 41.6286 -75.1319 274° West 396 456 25,300 2,903 Climbing FlightAware ADS-B
Wed 08:26:05 PM 41.6330 -75.2068 275° West 395 455 26,700 1,839 Climbing FlightAware ADS-B
Wed 08:26:36 PM 41.6377 -75.2853 275° West 423 487 27,200 968 Climbing FlightAware ADS-B
Wed 08:27:07 PM 41.6423 -75.3660 274° West 443 510 27,700 1,377 Climbing FlightAware ADS-B
Wed 08:27:37 PM 41.6468 -75.4519 274° West 454 522 28,600 1,970 Climbing FlightAware ADS-B
Wed 08:28:14 PM 41.6524 -75.5538 274° West 459 528 29,900 2,647 Climbing FlightAware ADS-B
Wed 08:28:45 PM 41.6569 -75.6423 274° West 446 513 31,600 2,032 Climbing FlightAware ADS-B
Wed 08:29:16 PM 41.6614 -75.7275 274° West 446 513 32,000 387 Climbing FlightAware ADS-B
Wed 08:29:47 PM 41.6660 -75.8129 274° West 448 516 32,000  Level FlightAware ADS-B
Wed 08:30:17 PM 41.6703 -75.8959 274° West 448 516 32,000 1,200 Level FlightAware ADS-B
Wed 08:30:47 PM 41.6744 -75.9783 274° West 444 511 33,200 2,262 Climbing FlightAware ADS-B
Wed 08:31:18 PM 41.6785 -76.0622 274° West 438 504 34,300 2,164 Climbing FlightAware ADS-B
Wed 08:31:48 PM 41.6825 -76.1431 274° West 436 502 35,400 2,217 Climbing FlightAware ADS-B
Wed 08:32:04 PM 41.6829 -76.1861 271° West 439 505 36,000 2,087 Climbing FlightAware ADS-B
Wed 08:32:11 PM 41.6814 -76.2024 263° West 441 507 36,200 2,000 Climbing FlightAware ADS-B
Wed 08:32:22 PM 41.6765 -76.2317 257° West 444 511 36,600 1,920 Climbing FlightAware ADS-B
Wed 08:32:36 PM 41.6653 -76.2701 249° West 448 516 37,000 1,696 Climbing FlightAware ADS-B
Wed 08:33:08 PM 41.6336 -76.3479 241° Southwest 450 518 37,900 952 Climbing FlightAware ADS-B
Wed 08:33:39 PM 41.6019 -76.4203 240° Southwest 449 517 38,000 98 Climbing FlightAware ADS-B
Wed 08:34:09 PM 41.5706 -76.4945 241° Southwest 446 513 38,000  Level FlightAware ADS-B
Wed 08:34:40 PM 41.5396 -76.5657 240° Southwest 444 511 38,000  Level FlightAware ADS-B
Wed 08:35:11 PM 41.5074 -76.6417 241° Southwest 443 510 38,000  Level FlightAware ADS-B
Wed 08:35:43 PM 41.4748 -76.7175 240° Southwest 441 507 38,000  Level FlightAware ADS-B
Wed 08:36:19 PM 41.4393 -76.7999 240° Southwest 440 506 38,000  Level FlightAware ADS-B
Wed 08:36:51 PM 41.4066 -76.8772 241° Southwest 438 504 38,000  Level FlightAware ADS-B
Wed 08:37:21 PM 41.3760 -76.9471 240° Southwest 437 503 38,000  Level FlightAware ADS-B
Wed 08:37:52 PM 41.3448 -77.0194 240° Southwest 437 503 38,000  Level FlightAware ADS-B
Wed 08:38:24 PM 41.3123 -77.0938 240° Southwest 437 503 38,000  Level FlightAware ADS-B
Wed 08:38:56 PM 41.2803 -77.1683 240° Southwest 438 504 38,000  Level FlightAware ADS-B
Wed 08:39:33 PM 41.2490 -77.2380 239° Southwest 438 504 38,000  Level FlightAware ADS-B
Wed 08:40:04 PM 41.2112 -77.3263 240° Southwest 438 504 38,000  Level FlightAware ADS-B
Wed 08:40:40 PM 41.1745 -77.4098 240° Southwest 438 504 38,000  Level FlightAware ADS-B
Wed 08:41:10 PM 41.1438 -77.4795 240° Southwest 437 503 38,000  Level FlightAware ADS-B
Wed 08:41:41 PM 41.1119 -77.5514 240° Southwest 439 505 38,000  Level FlightAware ADS-B
Wed 08:42:21 PM 41.0760 -77.6330 240° Southwest 440 506 38,000  Level FlightAware ADS-B
Wed 08:42:37 PM 41.0552 -77.6791 239° Southwest 441 507 38,000  Level FlightAware ADS-B
Wed 08:43:08 PM 41.0250 -77.7490 240° Southwest 440 506 38,000  Level FlightAware ADS-B
Wed 08:43:20 PM 41.0104 -77.7814 239° Southwest 440 506 38,000  Level FlightAware ADS-B
Wed 08:43:50 PM 40.9792 -77.8508 239° Southwest 440 506 38,000  Level FlightAware ADS-B
Wed 08:44:43 PM 40.9290 -77.9660 240° Southwest 435 501 38,000  Level FlightAware ADS-B
Wed 08:45:28 PM 40.8930 -78.0690 245° Southwest 430 495 38,000  Level FlightAware ADS-B
Wed 08:46:08 PM 40.8610 -78.1710 247° West 429 494 38,000  Level FlightAware ADS-B
Wed 08:46:33 PM 40.8430 -78.2340 249° West 429 494 38,000  Level FlightAware ADS-B
Wed 08:47:08 PM 40.8190 -78.3120 248° West 428 493 38,000  Level FlightAware ADS-B
Wed 08:49:49 PM 40.6980 -78.7070 248° West 430 495 38,000  Level FlightAware ADS-B
Wed 08:50:29 PM 40.6680 -78.7990 247° West 431 496 38,000  Level FlightAware ADS-B
Wed 08:51:14 PM 40.6330 -78.9140 248° West 432 497 38,000  Level FlightAware ADS-B
Wed 08:51:52 PM 40.6080 -78.9940 248° West 433 498 38,000  Level FlightAware ADS-B
Wed 08:52:53 PM 40.5570 -79.1630 248° West 435 501 38,000  Level FlightAware ADS-B
Wed 08:53:34 PM 40.5310 -79.2630 251° West 436 502 38,000 -222 Level FlightAware ADS-B
Wed 08:54:14 PM 40.5050 -79.3630 251° West 434 499 37,700 -1,143 Descending FlightAware ADS-B
Wed 08:54:58 PM 40.4760 -79.4770 252° West 443 510 36,400 -1,705 Descending FlightAware ADS-B
Wed 08:55:42 PM 40.4480 -79.5910 252° West 453 521 35,200 -1,571 Descending FlightAware ADS-B
Wed 08:56:22 PM 40.4210 -79.6930 251° West 457 526 34,200 -1,425 Descending FlightAware ADS-B
Wed 08:57:02 PM 40.3940 -79.7950 251° West 461 531 33,300 -1,259 Descending FlightAware ADS-B
Wed 08:57:43 PM 40.3660 -79.9040 251° West 457 526 32,500 -907 Descending FlightAware ADS-B
Wed 08:58:28 PM 40.3350 -80.0220 251° West 462 532 32,000 -337 Descending FlightAware ADS-B
Wed 08:59:12 PM 40.3050 -80.1380 251° West 456 525 32,000  Level FlightAware ADS-B
Wed 08:59:47 PM 40.2790 -80.2340 250° West 457 526 32,000  Level FlightAware ADS-B
Wed 09:00:33 PM 40.2480 -80.3530 251° West 462 532 32,000 -483 Level FlightAware ADS-B
Wed 09:01:14 PM 40.2190 -80.4580 250° West 457 526 31,300 -2,747 Descending FlightAware ADS-B
Wed 09:01:56 PM 40.1900 -80.5670 251° West 453 521 28,200 -4,627 Descending FlightAware ADS-B
Wed 09:02:37 PM 40.1610 -80.6750 251° West 457 526 24,900 -3,036 Descending FlightAware ADS-B
Wed 09:03:19 PM 40.1310 -80.7880 251° West 462 532 24,000 -1,256 Descending FlightAware ADS-B
Wed 09:04:03 PM 40.1000 -80.9030 251° West 454 522 23,100 -1,295 Descending FlightAware ADS-B
Wed 09:04:47 PM 40.0700 -81.0130 250° West 445 512 22,100 -786 Descending FlightAware ADS-B
Wed 09:05:27 PM 40.0520 -81.1170 257° West 447 514 22,000 -571 Descending FlightAware ADS-B
Wed 09:06:11 PM 40.0570 -81.2350 273° West 444 511 21,300 -1,301 Descending FlightAware ADS-B
Wed 09:06:50 PM 40.0650 -81.3380 276° West 440 506 20,200 -1,683 Descending FlightAware ADS-B
Wed 09:07:33 PM 40.0810 -81.4500 281° West 436 502 19,000 -1,517 Descending FlightAware ADS-B
Wed 09:08:17 PM 40.1030 -81.5610 285° West 426 490 18,000 -1,395 Descending FlightAware ADS-B
Wed 09:08:59 PM 40.1360 -81.6620 293° West 420 483 17,000 -1,350 Descending FlightAware ADS-B
Wed 09:09:37 PM 40.1650 -81.7490 294° West 412 474 16,200 -651 Descending FlightAware ADS-B
Wed 09:10:22 PM 40.2000 -81.8470 295° West 406 467 16,100 -75 Descending FlightAware ADS-B
Wed 09:10:57 PM 40.2350 -81.9210 302° West 400 460 16,100 -345 Level FlightAware ADS-B
Wed 09:11:49 PM 40.2860 -82.0210 304° West 364 419 15,600 -1,419 Descending FlightAware ADS-B
Wed 09:12:30 PM 40.3250 -82.0930 305° West 362 417 13,900 -2,442 Descending FlightAware ADS-B
Wed 09:13:15 PM 40.3750 -82.1680 311° West 355 409 12,100 -2,074 Descending FlightAware ADS-B
Wed 09:13:51 PM 40.4200 -82.2190 319° Northwest 352 405 11,100 -1,222 Descending FlightAware ADS-B
Wed 09:14:09 PM 40.4310 -82.2530 293° West 328 377 11,000 -581 Descending FlightAware ADS-B
Wed 09:14:22 PM 40.4330 -82.2760 277° West 315 362 10,800 -982 Descending FlightAware ADS-B
Wed 09:15:04 PM 40.4280 -82.3530 265° West 290 334 10,100 -488 Descending FlightAware ADS-B
Wed 09:15:48 PM 40.4220 -82.4290 264° West 293 337 10,100 -207 Level FlightAware ADS-B
Wed 09:16:02 PM 40.4140 -82.4540 247° West 287 330 9,900 -1,111 Descending FlightAware ADS-B
Wed 09:16:15 PM 40.4040 -82.4700 231° Southwest 286 329 9,600 -1,600 Descending FlightAware ADS-B
Wed 09:16:32 PM 40.3850 -82.4850 211° Southwest 286 329 9,100 -1,862 Descending FlightAware ADS-B
Wed 09:16:44 PM 40.3710 -82.4950 209° Southwest 285 328 8,700 -1,531 Descending FlightAware ADS-B
Wed 09:19:44 PM 40.1690 -82.6360 208° Southwest 258 297 4,200 -1,314 Descending FlightAware ADS-B
Wed 09:20:14 PM 40.1380 -82.6580 208° Southwest 253 291 4,100 -158 Descending FlightAware ADS-B
Wed 09:20:22 PM 40.1300 -82.6630 206° Southwest 255 293 4,100 -600 Level FlightAware ADS-B
Wed 09:20:54 PM 40.0980 -82.6850 208° Southwest 251 289 3,700 -923 Descending FlightAware ADS-B
Wed 09:21:27 PM 40.0630 -82.7100 209° Southwest 250 288 3,100 -800 Descending FlightAware ADS-B
Wed 09:21:39 PM 40.0510 -82.7180 207° Southwest 247 284 3,100  Level FlightAware ADS-B
Wed 09:22:11 PM 40.0180 -82.7410 208° Southwest 251 289 3,100  Level FlightAware ADS-B
Wed 09:22:39 PM 39.9900 -82.7600 207° Southwest 233 268 3,100  Level FlightAware ADS-B
Wed 09:22:47 PM 39.9820 -82.7660 210° Southwest 225 259 3,100  Level FlightAware ADS-B
Wed 09:23:15 PM 39.9580 -82.7830 209° Southwest 195 224 3,100 -346 Level FlightAware ADS-B
Wed 09:23:39 PM 39.9400 -82.7950 207° Southwest 188 216 2,800 -577 Descending FlightAware ADS-B
Wed 09:24:07 PM 39.9180 -82.8100 208° Southwest 178 205 2,600 -290 Descending FlightAware ADS-B
Wed 09:25:43 PM 39.8680 -82.8580 216° Southwest 111 128 2,200 -344 Descending FlightAware ADS-B
Wed 09:26:09 PM 39.8590 -82.8710 228° Southwest 108 124 1,900 -353 Descending FlightAware ADS-B
Wed 09:26:51 PM 39.8460 -82.8880 225° Southwest 106 122 1,800 -482 Descending FlightAware ADS-B
Wed 09:28:01 PM 39.8208 -82.9208 225° Southwest 114 131 1,000 -686 Descending Indianapolis Center

Login

Don't have an account? Register now (free) for customized features, flight alerts, and more!